Aviation Digital Data Service (ADDS)

Output produced by METARs form (1913 UTC 19 April 2019)
found at http://www.aviationweather.gov/metar/data/
 
Forecast for: SLVR (VIRU VIRU INTL A, BO)
Text: TAF SLVR 191600Z 1918/2018 35020G30KT 6000 SHRA BKN020 FEW027TCU TX32/1919Z TN23/2011Z
Forecast period: 1800 to 2300 UTC 19 April 2019
Forecast type: FROM: standard forecast or significant change
Winds: from the N (350 degrees) at 23 MPH (20 knots; 10.3 m/s)
gusting to 34 MPH (30 knots; 15.4 m/s)
Visibility: 4 miles (6 km)
Ceiling: 2000 feet AGL
Clouds: broken clouds at 2000 feet AGL
few clouds at 2700 feet AGL
Weather: SHRA  (rain showers)
Text: BECMG 1923/2001 35012KT 9999 NSC
Forecast period: 2300 UTC 19 April 2019 to 1500 UTC 20 April 2019
Forecast type: BECOMING: Conditions expected to become as follows by 0100 UTC 20 April 2019
Winds: from the N (350 degrees) at 14 MPH (12 knots; 6.2 m/s)
Visibility: 6 or more miles 10+ km)
Ceiling: unknown
Clouds: missing
Weather: SHRA  (rain showers)
Text: TEMPO 2008/ 2012 BKN005
Forecast period: 1500 to 1800 UTC 20 April 2019
Forecast type: BECOMING: Conditions expected to become as follows by 1800 UTC 20 April 2019
Winds: from the N (350 degrees) at 17 MPH (15 knots; 7.7 m/s)
gusting to 29 MPH (25 knots; 12.9 m/s)
Visibility: 6 or more miles 10+ km)
Ceiling: at least 12,000 feet AGL
Clouds: scattered clouds at 2000 feet AGL
few clouds at 2700 feet AGL
Weather: SHRA  (rain showers)